Time;durP1;ratioP1;P1;durP2;ratioP2;P2;SDS_P1;SDS_P2;PMS_P1;PMS_P2;Temp;Humidity;BMP_temperature;BMP_pressure;BME280_temperature;BME280_humidity;BME280_pressure;Samples;Min_cycle;Max_cycle;Signal;HPM_P1;HPM_P2
2021/08/04 00:00:47;;;;;;;18.85;8.03;;;;;;;17.75;100.00;101010.94;1709566;84;20938;-78
2021/08/04 00:03:13;;;;;;;21.50;8.40;;;;;;;17.70;100.00;101013.98;1709596;84;20952;-79
2021/08/04 00:05:39;;;;;;;18.65;7.65;;;;;;;17.67;100.00;101018.67;1709635;84;20865;-79
2021/08/04 00:08:05;;;;;;;17.07;8.15;;;;;;;17.64;100.00;101019.27;1709696;84;20925;-79
2021/08/04 00:10:32;;;;;;;23.92;8.58;;;;;;;17.62;100.00;101017.41;1709522;84;21094;-79
2021/08/04 00:12:58;;;;;;;22.50;8.65;;;;;;;17.52;100.00;101014.83;1709577;84;21072;-79
2021/08/04 00:15:24;;;;;;;23.85;8.88;;;;;;;17.52;100.00;101014.83;1709813;83;21481;-77
2021/08/04 00:17:51;;;;;;;21.10;8.15;;;;;;;17.40;100.00;101000.84;1711494;83;20896;-79
2021/08/04 00:20:17;;;;;;;19.67;9.30;;;;;;;17.49;100.00;101016.78;1709733;84;21395;-80
2021/08/04 00:22:44;;;;;;;22.65;8.73;;;;;;;17.42;100.00;101016.36;1709701;84;21873;-79
2021/08/04 00:25:11;;;;;;;22.17;8.73;;;;;;;17.42;100.00;101016.36;1709522;84;21047;-79
2021/08/04 00:27:37;;;;;;;20.45;8.35;;;;;;;17.41;100.00;101016.08;1709519;84;21052;-79
2021/08/04 00:30:05;;;;;;;17.90;8.35;;;;;;;17.20;100.00;100984.24;1709509;84;21042;-80
2021/08/04 00:32:31;;;;;;;18.25;8.73;;;;;;;17.36;100.00;101017.54;1709699;84;21134;-79
2021/08/04 00:34:58;;;;;;;23.10;9.00;;;;;;;17.34;100.00;101021.09;1709671;84;21117;-78
2021/08/04 00:37:24;;;;;;;25.45;9.88;;;;;;;17.33;100.00;101014.84;1709636;82;20992;-76
2021/08/04 00:39:50;;;;;;;16.97;9.00;;;;;;;17.29;100.00;101024.69;1709647;84;21028;-79
2021/08/04 00:42:19;;;;;;;23.25;8.65;;;;;;;17.27;100.00;101020.67;1709698;84;20889;-79
2021/08/04 00:44:48;;;;;;;26.45;9.63;;;;;;;17.21;100.00;101022.66;1709497;84;21008;-79
2021/08/04 00:47:14;;;;;;;27.00;11.12;;;;;;;17.14;100.00;101015.38;1664938;86;21978;-79
2021/08/04 00:49:41;;;;;;;24.50;10.50;;;;;;;17.14;100.00;101015.38;1661391;83;21053;-78
2021/08/04 00:52:07;;;;;;;23.45;10.58;;;;;;;17.14;100.00;101023.55;1723848;83;21048;-79
2021/08/04 00:54:35;;;;;;;22.20;9.95;;;;;;;17.10;100.00;101026.05;1730913;82;20979;-79
2021/08/04 00:57:03;;;;;;;24.15;10.45;;;;;;;17.07;100.00;101031.28;1740717;82;21086;-79
2021/08/04 00:59:29;;;;;;;20.72;10.20;;;;;;;17.05;100.00;101028.03;1740407;82;21270;-79
2021/08/04 01:02:22;;;;;;;24.12;9.93;;;;;;;17.01;100.00;101035.42;1740893;82;20845;-79
2021/08/04 01:04:53;;;;;;;23.32;10.85;;;;;;;16.97;100.00;101039.02;1740779;82;21091;-78
2021/08/04 01:07:27;;;;;;;20.05;9.55;;;;;;;16.90;100.00;101039.38;1688397;84;20994;-78
2021/08/04 01:09:58;;;;;;;26.45;10.68;;;;;;;16.87;100.00;101047.32;1688309;85;21062;-79
2021/08/04 01:12:29;;;;;;;23.75;10.15;;;;;;;16.84;100.00;101048.70;1688455;85;21078;-79
2021/08/04 01:15:01;;;;;;;30.27;10.68;;;;;;;16.84;100.00;101054.70;1631961;87;21512;-79
2021/08/04 01:17:27;;;;;;;22.22;10.55;;;;;;;16.80;100.00;101058.02;1629366;87;21079;-80
2021/08/04 01:20:13;;;;;;;26.93;10.55;;;;;;;16.78;100.00;101058.03;1632254;87;21587;-79
2021/08/04 01:25:48;;;;;;;21.30;10.05;;;;;;;16.73;100.00;101052.06;1524073;92;21607;-79
2021/08/04 01:28:38;;;;;;;36.88;11.10;;;;;;;16.73;100.00;101060.78;1530118;93;21241;-79
2021/08/04 01:31:11;;;;;;;22.17;10.45;;;;;;;16.68;100.00;101063.02;1531273;93;21118;-79
2021/08/04 01:33:41;;;;;;;23.00;10.17;;;;;;;16.68;100.00;101060.30;1531452;93;21627;-79
2021/08/04 01:36:09;;;;;;;26.45;9.65;;;;;;;16.68;100.00;101058.94;1531238;93;21046;-79
2021/08/04 01:38:37;;;;;;;23.40;9.65;;;;;;;16.68;100.00;101054.86;1531215;93;21128;-78
2021/08/04 01:41:04;;;;;;;24.18;8.98;;;;;;;16.66;100.00;101058.41;1530973;93;21070;-78
2021/08/04 01:43:31;;;;;;;19.87;10.28;;;;;;;16.62;100.00;101056.02;1525737;93;21094;-80
2021/08/04 01:45:58;;;;;;;21.27;9.60;;;;;;;16.58;100.00;101055.77;1508532;95;21065;-80
2021/08/04 01:48:25;;;;;;;19.98;9.28;;;;;;;16.57;100.00;101058.23;1508761;95;21065;-80
2021/08/04 01:50:54;;;;;;;24.35;9.55;;;;;;;16.57;100.00;101058.23;1508523;95;21998;-80
2021/08/04 01:53:25;;;;;;;25.05;9.53;;;;;;;16.57;100.00;101059.59;1508380;95;21107;-80
2021/08/04 01:55:51;;;;;;;22.22;9.58;;;;;;;16.55;100.00;101063.14;1507981;95;21318;-80
2021/08/04 01:58:17;;;;;;;19.57;8.48;;;;;;;16.53;100.00;101069.44;1513985;94;21166;-80
2021/08/04 02:00:43;;;;;;;27.37;9.03;;;;;;;16.50;100.00;101072.73;1514187;94;21006;-77
2021/08/04 02:03:09;;;;;;;18.17;8.18;;;;;;;16.50;100.00;101072.73;1500179;92;21045;-79
2021/08/04 02:05:35;;;;;;;21.45;9.18;;;;;;;16.47;100.00;101074.67;1566841;90;20926;-80
2021/08/04 02:08:29;;;;;;;19.73;8.63;;;;;;;16.41;100.00;101070.36;1576524;91;21101;-79
2021/08/04 02:11:07;;;;;;;19.77;8.53;;;;;;;16.38;100.00;101075.02;1531817;93;21107;-79
2021/08/04 02:13:45;;;;;;;19.80;8.30;;;;;;;16.36;100.00;101074.51;1498737;95;21206;-76
2021/08/04 02:17:00;;;;;;;17.82;7.47;;;;;;;16.31;100.00;101072.63;1497101;95;21071;-79
2021/08/04 02:19:43;;;;;;;15.58;7.83;;;;;;;16.31;100.00;101073.99;1529167;93;21114;-79
2021/08/04 02:22:47;;;;;;;19.07;7.47;;;;;;;16.31;100.00;101072.63;1553366;89;21162;-78
2021/08/04 02:25:25;;;;;;;;;;;;;;;16.31;100.00;101076.72;1605839;87;21022;-79
2021/08/04 02:27:55;;;;;;;21.37;7.72;;;;;;;16.29;100.00;101073.46;1633085;87;20184;-79
2021/08/04 02:30:23;;;;;;;16.85;7.58;;;;;;;16.30;100.00;101077.02;1606220;88;21223;-78
2021/08/04 02:32:50;;;;;;;21.80;7.75;;;;;;;16.30;100.00;101080.55;1606605;88;21096;-79
2021/08/04 02:35:17;;;;;;;19.42;7.40;;;;;;;16.33;100.00;101082.69;1606540;89;21094;-80
2021/08/04 02:37:44;;;;;;;17.65;7.30;;;;;;;16.35;100.00;101085.11;1606469;89;21535;-80
2021/08/04 02:40:13;;;;;;;14.10;6.55;;;;;;;16.34;100.00;101087.58;1606597;89;21047;-80
2021/08/04 02:42:40;;;;;;;14.87;6.58;;;;;;;16.37;100.00;101087.55;1606579;88;21559;-80
2021/08/04 02:45:08;;;;;;;15.23;6.92;;;;;;;16.39;100.00;101090.81;1606434;89;21557;-79
2021/08/04 02:47:36;;;;;;;14.03;6.55;;;;;;;16.40;100.00;101095.14;1606342;89;21059;-79
2021/08/04 02:50:06;;;;;;;14.87;6.70;;;;;;;16.42;100.00;101097.03;1610939;87;21164;-84
2021/08/04 02:52:33;;;;;;;14.03;6.28;;;;;;;16.43;100.00;101095.38;1645477;87;21056;-79
2021/08/04 02:54:59;;;;;;;18.35;6.62;;;;;;;16.44;100.00;101095.66;1642710;87;21039;-79
2021/08/04 02:57:26;;;;;;;13.30;6.55;;;;;;;16.53;100.00;101094.45;1638760;87;21518;-79
2021/08/04 02:59:52;;;;;;;16.67;6.92;;;;;;;16.62;100.00;101102.28;1638877;87;21002;-79
2021/08/04 03:02:19;;;;;;;17.48;7.40;;;;;;;16.71;100.00;101098.38;1638821;87;20867;-79
2021/08/04 03:04:44;;;;;;;18.77;7.22;;;;;;;16.78;100.00;101095.59;1639095;87;21041;-79
2021/08/04 03:07:10;;;;;;;15.72;7.08;;;;;;;16.90;100.00;101099.83;1664366;84;21132;-79
2021/08/04 03:09:36;;;;;;;17.85;7.80;;;;;;;17.01;100.00;101103.50;1684654;85;21726;-79
2021/08/04 03:12:03;;;;;;;19.37;8.15;;;;;;;17.09;100.00;101106.67;1714955;83;20982;-80
2021/08/04 03:14:29;;;;;;;18.80;8.30;;;;;;;17.18;100.00;101108.48;1715178;83;21062;-80
2021/08/04 03:16:55;;;;;;;16.25;7.22;;;;;;;17.31;100.00;101114.31;1711159;83;20979;-80
2021/08/04 03:19:21;;;;;;;16.35;7.50;;;;;;;17.42;100.00;101119.89;1757068;81;21092;-79
2021/08/04 03:21:46;;;;;;;21.12;7.58;;;;;;;17.57;100.00;101127.86;1772324;80;21044;-79
2021/08/04 03:24:14;;;;;;;21.25;8.00;;;;;;;17.68;100.00;101122.53;1772360;81;20844;-79
2021/08/04 03:26:40;;;;;;;18.05;7.30;;;;;;;17.83;100.00;101120.16;1772034;80;20992;-79
2021/08/04 03:29:06;;;;;;;14.93;7.03;;;;;;;18.02;100.00;101129.67;1772410;80;20988;-77
2021/08/04 03:31:32;;;;;;;21.00;7.62;;;;;;;18.23;100.00;101127.43;1772156;80;21089;-78
2021/08/04 03:33:58;;;;;;;16.62;6.92;;;;;;;18.43;100.00;101124.91;1772396;81;20998;-79
2021/08/04 03:36:25;;;;;;;15.83;6.62;;;;;;;18.72;100.00;101127.96;1778747;80;20951;-77
2021/08/04 03:38:51;;;;;;;13.20;6.58;;;;;;;19.10;100.00;101129.18;1778845;80;21066;-79
2021/08/04 03:41:17;;;;;;;13.32;6.30;;;;;;;19.48;100.00;101137.39;1778713;80;20872;-79
2021/08/04 03:43:43;;;;;;;15.08;6.65;;;;;;;19.88;100.00;101132.70;1778542;80;21160;-79
2021/08/04 03:46:09;;;;;;;19.50;6.37;;;;;;;20.54;100.00;101130.30;1778413;80;20860;-78
2021/08/04 03:48:35;;;;;;;20.12;6.40;;;;;;;21.25;100.00;101126.15;1778633;80;20892;-78
2021/08/04 03:51:03;;;;;;;19.10;6.67;;;;;;;22.00;100.00;101124.13;1778756;80;20935;-78
2021/08/04 03:53:29;;;;;;;12.82;5.42;;;;;;;22.72;100.00;101120.39;1778732;80;21047;-79
2021/08/04 03:55:56;;;;;;;10.75;5.45;;;;;;;23.34;100.00;101128.03;1765736;80;21622;-78
2021/08/04 03:58:21;;;;;;;11.48;5.75;;;;;;;23.97;100.00;101130.27;1760314;81;20997;-79
2021/08/04 04:00:47;;;;;;;11.90;5.80;;;;;;;24.64;100.00;101138.52;1760617;81;21622;-78
2021/08/04 04:03:13;;;;;;;15.45;6.22;;;;;;;25.32;100.00;101138.78;1760808;81;20959;-79
2021/08/04 04:05:39;;;;;;;10.85;5.70;;;;;;;26.17;100.00;101142.48;1760719;81;21003;-79
2021/08/04 04:08:05;;;;;;;11.33;4.80;;;;;;;27.05;100.00;101142.41;1760618;81;21971;-78
2021/08/04 04:10:32;;;;;;;10.32;5.25;;;;;;;27.90;100.00;101142.77;1760483;81;20845;-79
2021/08/04 04:12:57;;;;;;;12.40;5.35;;;;;;;28.81;100.00;101144.67;1760400;81;20992;-79
2021/08/04 04:15:23;;;;;;;13.30;6.03;;;;;;;29.31;100.00;101143.50;1760646;81;20897;-77
2021/08/04 04:17:49;;;;;;;11.97;6.22;;;;;;;29.71;97.67;101139.89;1760745;81;20858;-80
2021/08/04 04:20:15;;;;;;;18.42;6.58;;;;;;;29.83;93.52;101141.86;1760672;81;20943;-80
2021/08/04 04:22:44;;;;;;;12.73;6.55;;;;;;;30.10;89.11;101141.17;1760714;81;20865;-80
2021/08/04 04:25:15;;;;;;;15.63;6.17;;;;;;;30.33;85.33;101145.83;1759435;81;21675;-79
2021/08/04 04:27:43;;;;;;;9.78;5.72;;;;;;;30.69;81.19;101142.78;1722295;81;20980;-79
2021/08/04 04:30:11;;;;;;;14.68;6.33;;;;;;;31.53;74.73;101143.60;1767035;80;21050;-78
2021/08/04 04:32:37;;;;;;;10.08;5.90;;;;;;;32.00;72.74;101145.41;1746365;81;21221;-79
2021/08/04 04:35:05;;;;;;;15.08;5.87;;;;;;;32.45;64.57;101157.12;1751597;81;21631;-76
2021/08/04 04:37:31;;;;;;;8.53;5.12;;;;;;;32.70;63.28;101156.34;1743646;82;21044;-79
2021/08/04 04:39:57;;;;;;;12.10;5.17;;;;;;;33.15;59.18;101156.73;1735249;82;20997;-83
2021/08/04 04:42:23;;;;;;;12.45;5.42;;;;;;;33.59;56.41;101158.26;1713897;83;21508;-79
2021/08/04 04:44:50;;;;;;;9.75;5.35;;;;;;;33.87;53.10;101160.16;1735149;82;21826;-79
2021/08/04 04:47:16;;;;;;;12.82;5.47;;;;;;;34.26;52.20;101158.56;1713862;83;21071;-79
2021/08/04 04:49:41;;;;;;;12.25;5.47;;;;;;;34.78;50.33;101147.42;1735198;82;20865;-79
2021/08/04 04:52:08;;;;;;;12.98;5.47;;;;;;;35.35;46.09;101148.89;1713845;83;21613;-78
2021/08/04 04:54:34;;;;;;;11.80;5.50;;;;;;;35.56;44.47;101150.67;1735232;82;21507;-79
2021/08/04 04:57:00;;;;;;;9.50;5.80;;;;;;;35.86;42.67;101157.55;1734904;82;21102;-79
2021/08/04 04:59:26;;;;;;;9.15;5.45;;;;;;;36.11;42.51;101153.02;1748066;82;21012;-79
2021/08/04 05:01:52;;;;;;;8.40;5.15;;;;;;;36.43;42.75;101160.95;1743615;82;21699;-80
2021/08/04 05:04:18;;;;;;;12.00;6.60;;;;;;;36.90;42.15;101164.44;1743685;82;20877;-79
2021/08/04 05:06:44;;;;;;;11.18;6.62;;;;;;;36.96;38.89;101164.92;1743746;82;20892;-80
2021/08/04 05:09:10;;;;;;;14.87;7.15;;;;;;;37.05;38.51;101166.59;1743636;82;21155;-79
2021/08/04 05:11:36;;;;;;;12.45;7.22;;;;;;;37.71;37.05;101169.76;1743455;82;20939;-80
2021/08/04 05:14:02;;;;;;;13.05;6.67;;;;;;;37.98;36.30;101173.06;1743718;82;21609;-80
2021/08/04 05:16:28;;;;;;;15.25;7.65;;;;;;;38.38;36.05;101173.73;1743374;82;20988;-79
2021/08/04 05:18:53;;;;;;;15.60;7.25;;;;;;;38.69;36.02;101165.77;1743645;82;20975;-80
2021/08/04 05:21:21;;;;;;;17.45;8.55;;;;;;;38.96;34.68;101170.36;1743650;82;21070;-80
2021/08/04 05:23:47;;;;;;;11.48;7.40;;;;;;;38.75;33.91;101173.08;1743058;82;21534;-80
2021/08/04 05:26:13;;;;;;;15.35;8.20;;;;;;;38.42;34.34;101175.91;1743504;82;21051;-80
2021/08/04 05:28:39;;;;;;;10.75;7.78;;;;;;;39.01;33.62;101172.64;1717325;82;20853;-80
2021/08/04 05:31:05;;;;;;;17.00;7.37;;;;;;;39.33;32.49;101175.22;1743660;82;21018;-80
2021/08/04 05:33:31;;;;;;;17.82;8.43;;;;;;;39.57;31.78;101176.56;1747545;82;21114;-80
2021/08/04 05:35:57;;;;;;;16.23;7.80;;;;;;;39.96;31.70;101171.81;1743552;82;21019;-80
2021/08/04 05:38:23;;;;;;;14.18;7.70;;;;;;;39.94;31.84;101178.52;1743493;82;20932;-80
2021/08/04 05:40:49;;;;;;;15.75;7.42;;;;;;;40.36;31.78;101172.82;1743453;82;20959;-81
2021/08/04 05:43:15;;;;;;;11.75;7.45;;;;;;;40.91;31.17;101169.80;1743651;82;21150;-81
2021/08/04 05:45:41;;;;;;;12.53;7.60;;;;;;;41.02;30.29;101174.45;1743579;82;21087;-80
2021/08/04 05:48:07;;;;;;;11.33;7.50;;;;;;;40.90;29.80;101167.59;1743562;82;20965;-80
2021/08/04 05:50:34;;;;;;;11.57;7.12;;;;;;;41.11;29.89;101175.98;1743161;82;20991;-78
2021/08/04 05:53:00;;;;;;;13.58;6.70;;;;;;;41.19;29.36;101173.70;1743418;82;21042;-79
2021/08/04 05:55:26;;;;;;;12.40;5.95;;;;;;;40.93;28.73;101180.81;1740259;82;21083;-80
2021/08/04 05:57:52;;;;;;;11.73;4.97;;;;;;;40.81;29.45;101181.02;1728788;82;21119;-80
2021/08/04 06:00:17;;;;;;;12.30;5.62;;;;;;;41.59;29.50;101174.47;1728858;82;21010;-80
2021/08/04 06:02:43;;;;;;;9.63;5.70;;;;;;;41.98;28.35;101172.37;1728908;82;20888;-76
2021/08/04 06:05:10;;;;;;;9.45;5.33;;;;;;;42.19;27.30;101173.56;1728940;83;21009;-78
2021/08/04 06:07:36;;;;;;;12.37;5.62;;;;;;;41.89;26.99;101175.17;1722529;83;21035;-76
2021/08/04 06:10:02;;;;;;;6.62;5.30;;;;;;;41.72;27.24;101178.81;1740259;82;21052;-80
2021/08/04 06:12:28;;;;;;;6.67;5.40;;;;;;;41.67;27.82;101182.86;1708959;83;21520;-79
2021/08/04 06:14:54;;;;;;;7.05;4.97;;;;;;;42.28;27.09;101172.81;1729807;82;20936;-75
2021/08/04 06:17:20;;;;;;;8.65;5.53;;;;;;;42.44;26.52;101176.02;1728913;82;20976;-78
2021/08/04 06:19:46;;;;;;;7.08;4.95;;;;;;;42.87;26.18;101178.51;1728792;82;21031;-79
2021/08/04 06:22:12;;;;;;;11.73;5.55;;;;;;;42.90;26.06;101186.71;1728786;82;21106;-79
2021/08/04 06:24:38;;;;;;;5.80;5.05;;;;;;;43.20;26.03;101183.59;1728705;82;21000;-79
2021/08/04 06:27:04;;;;;;;13.72;5.78;;;;;;;43.28;26.01;101182.80;1728600;82;20971;-76
2021/08/04 06:29:30;;;;;;;8.85;6.25;;;;;;;43.30;25.08;101180.28;1728820;82;21658;-79
2021/08/04 06:31:56;;;;;;;12.93;6.20;;;;;;;43.63;25.36;101188.14;1702992;83;20865;-78
2021/08/04 06:34:22;;;;;;;9.13;6.10;;;;;;;43.37;24.54;101191.94;1728883;82;21080;-81
2021/08/04 06:36:48;;;;;;;7.53;5.05;;;;;;;43.25;25.01;101196.52;1728830;83;20881;-76
2021/08/04 06:39:14;;;;;;;8.23;5.45;;;;;;;43.16;24.52;101193.69;1729056;82;20913;-79
2021/08/04 06:41:40;;;;;;;8.70;5.67;;;;;;;43.50;23.84;101192.53;1729071;83;20866;-79
2021/08/04 06:44:06;;;;;;;8.35;5.67;;;;;;;43.34;25.11;101195.72;1729205;82;20988;-78
2021/08/04 06:46:38;;;;;;;15.80;6.40;;;;;;;43.56;24.92;101194.14;1728886;82;21068;-80
2021/08/04 06:49:05;;;;;;;11.12;6.55;;;;;;;43.96;24.74;101198.81;1728975;82;21036;-79
2021/08/04 06:51:33;;;;;;;8.35;6.17;;;;;;;44.32;24.96;101197.08;1728863;82;21032;-80
2021/08/04 06:53:59;;;;;;;9.65;6.25;;;;;;;44.36;24.32;101199.94;1726389;83;21036;-80
2021/08/04 06:56:25;;;;;;;11.68;5.70;;;;;;;44.56;24.48;101199.97;1738890;82;21035;-80
2021/08/04 06:58:51;;;;;;;8.28;5.83;;;;;;;44.81;23.89;101195.27;1748738;81;21810;-80
2021/08/04 07:01:18;;;;;;;5.53;5.12;;;;;;;44.91;23.60;101195.97;1749313;81;21000;-80
2021/08/04 07:03:44;;;;;;;5.03;4.62;;;;;;;45.04;22.23;101199.36;1748755;82;21090;-80
2021/08/04 07:06:11;;;;;;;6.83;4.67;;;;;;;44.82;22.14;101197.46;1752479;81;21130;-79
2021/08/04 07:08:39;;;;;;;5.25;4.60;;;;;;;45.25;21.87;101197.47;1748677;81;21519;-78
2021/08/04 07:11:06;;;;;;;6.65;5.62;;;;;;;45.10;21.43;101194.56;1748734;81;21503;-79
2021/08/04 07:13:33;;;;;;;5.33;4.90;;;;;;;45.02;21.33;101197.62;1727921;82;21039;-83
2021/08/04 07:16:00;;;;;;;4.78;4.47;;;;;;;44.63;20.79;101190.45;1748624;81;21574;-79
2021/08/04 07:18:26;;;;;;;7.20;4.33;;;;;;;44.78;20.89;101192.60;1749021;81;21031;-83
2021/08/04 07:20:52;;;;;;;5.03;4.62;;;;;;;45.08;20.83;101187.14;1749478;82;21657;-80
2021/08/04 07:23:18;;;;;;;5.47;4.35;;;;;;;44.63;20.72;101189.67;1727109;82;21010;-79
2021/08/04 07:25:44;;;;;;;5.33;4.92;;;;;;;44.84;20.43;101183.55;1748635;82;20955;-78
2021/08/04 07:28:10;;;;;;;6.42;4.60;;;;;;;44.58;21.11;101189.69;1748533;81;21043;-82
2021/08/04 07:30:36;;;;;;;7.00;4.25;;;;;;;44.69;20.98;101189.16;1748906;81;20966;-83
2021/08/04 07:33:03;;;;;;;4.47;4.10;;;;;;;44.24;21.54;101194.42;1755199;80;21031;-84
2021/08/04 07:35:29;;;;;;;4.42;4.05;;;;;;;44.65;21.00;101190.77;1781283;80;21035;-82
2021/08/04 07:37:55;;;;;;;5.75;4.03;;;;;;;45.11;20.50;101184.73;1781411;80;20984;-82
2021/08/04 07:40:21;;;;;;;5.10;4.17;;;;;;;45.58;19.87;101185.79;1781324;80;20974;-84
2021/08/04 07:42:49;;;;;;;4.37;4.08;;;;;;;45.46;20.15;101192.67;1777666;80;21039;-86
2021/08/04 07:45:18;;;;;;;4.50;4.12;;;;;;;45.57;19.90;101194.98;1781497;80;20939;-85
2021/08/04 07:47:44;;;;;;;4.35;3.87;;;;;;;45.71;19.62;101186.27;1714223;83;21161;-82
2021/08/04 07:50:14;;;;;;;4.53;4.22;;;;;;;45.93;19.26;101190.17;1704755;84;21055;-82
2021/08/04 07:52:40;;;;;;;4.35;4.05;;;;;;;44.65;18.99;101195.64;1704307;83;21609;-80
2021/08/04 07:55:07;;;;;;;4.12;3.83;;;;;;;43.81;20.21;101200.09;1724655;81;21008;-77
2021/08/04 07:57:34;;;;;;;5.75;3.90;;;;;;;44.26;19.85;101196.94;1707442;83;21145;-81
2021/08/04 08:00:00;;;;;;;4.53;4.12;;;;;;;43.61;19.60;101185.63;1743124;81;21078;-79
2021/08/04 08:02:26;;;;;;;3.72;3.42;;;;;;;44.07;19.61;101184.88;1728063;82;21055;-79
2021/08/04 08:04:52;;;;;;;5.30;3.72;;;;;;;44.76;19.55;101185.97;1745616;82;20994;-78
2021/08/04 08:07:18;;;;;;;3.83;3.52;;;;;;;44.36;19.36;101176.38;1745710;82;21592;-78
2021/08/04 08:09:44;;;;;;;3.90;3.60;;;;;;;44.03;20.13;101180.62;1745989;82;20922;-79
2021/08/04 08:12:10;;;;;;;3.65;3.30;;;;;;;44.05;20.12;101178.10;1745735;82;22106;-79
2021/08/04 08:14:36;;;;;;;3.50;3.25;;;;;;;44.60;20.05;101171.52;1720643;82;20871;-79
2021/08/04 08:17:02;;;;;;;3.70;3.40;;;;;;;44.35;19.64;101175.60;1745471;82;21391;-83
2021/08/04 08:19:28;;;;;;;4.17;3.10;;;;;;;44.48;19.72;101169.70;1745557;82;20930;-79
2021/08/04 08:21:54;;;;;;;3.87;3.58;;;;;;;44.66;19.49;101171.00;1745615;82;20883;-81
2021/08/04 08:24:21;;;;;;;3.52;3.33;;;;;;;44.55;19.32;101170.75;1745724;82;21141;-79
2021/08/04 08:26:47;;;;;;;3.87;3.47;;;;;;;44.76;19.62;101167.48;1745306;82;21022;-81
2021/08/04 08:29:13;;;;;;;3.90;3.60;;;;;;;45.22;19.57;101164.92;1741598;82;21603;-84
2021/08/04 08:31:39;;;;;;;3.77;3.20;;;;;;;45.08;19.65;101159.32;1745564;82;20955;-80
2021/08/04 08:34:06;;;;;;;3.90;3.60;;;;;;;45.26;19.07;101160.59;1745623;82;20943;-80
2021/08/04 08:36:35;;;;;;;3.90;3.60;;;;;;;45.02;18.77;101161.27;1745944;82;21916;-79
2021/08/04 08:39:05;;;;;;;3.65;3.35;;;;;;;44.09;19.03;101163.86;1745519;82;20982;-79
2021/08/04 08:41:31;;;;;;;3.40;3.10;;;;;;;43.78;19.38;101166.18;1720836;82;20986;-80
2021/08/04 08:43:58;;;;;;;3.50;3.30;;;;;;;43.73;19.82;101160.50;1757254;80;20848;-80
2021/08/04 08:46:32;;;;;;;3.60;3.30;;;;;;;44.39;20.64;101161.23;1795723;80;21031;-81
2021/08/04 08:49:00;;;;;;;4.42;3.20;;;;;;;44.81;19.95;101162.55;1795622;80;21866;-80
2021/08/04 08:51:27;;;;;;;2.98;2.72;;;;;;;44.32;18.28;101169.43;1795506;80;21026;-81
2021/08/04 08:53:53;;;;;;;3.17;2.87;;;;;;;43.28;19.20;101172.08;1795722;80;20975;-80
2021/08/04 08:56:19;;;;;;;3.83;3.42;;;;;;;43.53;19.71;101168.90;1794012;79;20987;-81
2021/08/04 08:58:52;;;;;;;3.00;2.80;;;;;;;44.11;19.39;101163.39;1790182;80;21037;-80
2021/08/04 09:01:33;;;;;;;5.47;2.95;;;;;;;44.44;18.81;101164.81;1790075;80;21068;-78
2021/08/04 09:04:02;;;;;;;2.87;2.60;;;;;;;44.40;19.32;101162.16;1788984;80;20979;-78
2021/08/04 09:06:52;;;;;;;5.15;3.05;;;;;;;44.42;19.48;101160.27;1789680;80;21050;-79
2021/08/04 09:09:24;;;;;;;2.55;2.45;;;;;;;44.33;18.72;101153.16;1790000;80;21530;-79
2021/08/04 09:11:57;;;;;;;3.25;2.90;;;;;;;42.79;19.63;101163.84;1790076;80;21470;-79
2021/08/04 09:14:31;;;;;;;11.40;2.77;;;;;;;42.33;20.20;101156.64;1785396;80;21147;-87
2021/08/04 09:17:06;;;;;;;2.62;2.42;;;;;;;42.02;20.60;101160.90;1693351;84;21644;-79
2021/08/04 09:19:36;;;;;;;2.70;2.50;;;;;;;42.05;20.48;101159.97;1609557;89;21657;-80
2021/08/04 09:22:16;;;;;;;2.67;2.47;;;;;;;42.14;20.88;101157.80;1651893;86;21100;-86
2021/08/04 09:25:08;;;;;;;2.83;2.42;;;;;;;42.64;21.11;101154.34;1652488;86;21531;-82
2021/08/04 09:27:44;;;;;;;2.40;2.20;;;;;;;43.14;20.19;101157.89;1632020;86;21301;-84
2021/08/04 09:30:15;;;;;;;2.92;2.30;;;;;;;43.20;20.21;101151.73;1652892;86;21052;-80
2021/08/04 09:32:41;;;;;;;2.40;2.20;;;;;;;43.00;19.80;101159.91;1650018;86;21193;-81
2021/08/04 09:35:18;;;;;;;2.87;2.10;;;;;;;42.62;20.01;101152.59;1652886;86;21532;-80
2021/08/04 09:37:46;;;;;;;2.30;2.10;;;;;;;42.70;19.62;101153.88;1605841;88;21136;-80
2021/08/04 09:40:21;;;;;;;2.95;1.85;;;;;;;42.40;20.07;101151.30;1605589;89;21080;-80
2021/08/04 09:42:53;;;;;;;4.42;2.20;;;;;;;42.30;20.68;101150.47;1605238;89;21033;-81
2021/08/04 09:45:25;;;;;;;2.15;1.98;;;;;;;42.07;20.27;101143.94;1605857;89;21028;-81
2021/08/04 09:48:09;;;;;;;4.62;2.08;;;;;;;41.96;19.99;101151.44;1509450;95;21118;-81
2021/08/04 09:51:00;;;;;;;2.45;2.25;;;;;;;41.86;20.19;101146.33;1507860;95;21110;-80
2021/08/04 09:53:33;;;;;;;3.02;2.02;;;;;;;41.72;20.09;101142.64;1506883;95;21658;-81
2021/08/04 09:56:17;;;;;;;5.90;2.08;;;;;;;41.08;19.77;101138.71;1491140;95;21551;-81
2021/08/04 09:58:49;;;;;;;3.35;2.30;;;;;;;40.18;21.62;101134.63;1478617;97;21078;-84
2021/08/04 10:01:22;;;;;;;5.60;2.10;;;;;;;39.51;22.25;101135.41;1447266;99;21092;-89
2021/08/04 10:04:05;;;;;;;2.85;2.25;;;;;;;38.96;22.21;101143.58;1447152;99;21259;-80
2021/08/04 10:06:33;;;;;;;3.30;2.12;;;;;;;38.53;24.01;101149.65;1462854;98;21171;-80
2021/08/04 10:09:02;;;;;;;6.05;2.47;;;;;;;38.24;23.87;101146.73;1463129;98;21035;-82
2021/08/04 10:11:30;;;;;;;3.83;2.40;;;;;;;38.35;24.09;101147.86;1462840;98;21095;-80
2021/08/04 10:13:58;;;;;;;2.75;2.37;;;;;;;38.43;23.04;101136.63;1487153;95;21088;-76
2021/08/04 10:16:30;;;;;;;3.85;2.05;;;;;;;37.76;23.29;101131.27;1567752;89;21091;-80
2021/08/04 10:18:57;;;;;;;;;;;;;;;37.08;24.09;101129.02;1605342;89;21189;-81
2021/08/04 10:21:23;;;;;;;5.22;2.30;;;;;;;37.29;25.11;101127.98;1605372;89;20163;-80
2021/08/04 10:23:52;;;;;;;2.77;2.30;;;;;;;37.52;24.00;101131.98;1605433;89;21089;-81
2021/08/04 10:26:20;;;;;;;5.03;2.27;;;;;;;37.18;24.24;101132.22;1605476;89;21118;-81
2021/08/04 10:28:51;;;;;;;2.75;2.25;;;;;;;36.69;24.74;101124.87;1605340;89;21094;-81
2021/08/04 10:31:18;;;;;;;6.25;2.33;;;;;;;36.43;24.86;101126.47;1601888;89;21555;-80
2021/08/04 10:33:43;;;;;;;4.08;2.45;;;;;;;36.23;25.70;101120.76;1604866;89;21054;-79
2021/08/04 10:36:13;;;;;;;6.95;2.42;;;;;;;36.26;26.16;101121.31;1605486;89;21669;-80
2021/08/04 10:38:54;;;;;;;4.97;2.60;;;;;;;36.43;25.45;101123.05;1605253;89;21235;-80
2021/08/04 10:41:24;;;;;;;4.97;2.47;;;;;;;36.33;25.66;101125.43;1605565;89;21097;-80
2021/08/04 10:43:57;;;;;;;5.58;2.37;;;;;;;36.20;25.34;101118.80;1616205;84;21450;-80
2021/08/04 10:46:36;;;;;;;5.50;2.60;;;;;;;36.11;25.28;101115.91;1631119;87;21147;-80
2021/08/04 10:49:10;;;;;;;3.10;2.25;;;;;;;35.86;25.87;101109.85;1633816;87;21161;-81
2021/08/04 10:51:41;;;;;;;5.05;2.83;;;;;;;35.54;25.45;101115.85;1634120;87;21039;-81
2021/08/04 10:54:17;;;;;;;4.12;2.58;;;;;;;35.64;26.42;101109.33;1646889;85;21141;-78
2021/08/04 10:56:49;;;;;;;7.45;3.12;;;;;;;35.55;27.49;101109.84;1688839;84;22077;-78
2021/08/04 10:59:25;;;;;;;5.15;2.83;;;;;;;35.78;27.21;101091.52;1681564;85;21125;-81
2021/08/04 11:02:04;;;;;;;5.35;3.40;;;;;;;36.12;26.08;101102.08;1691324;84;21043;-81
2021/08/04 11:07:19;;;;;;;6.37;3.05;;;;;;;35.88;27.14;101104.59;1592734;90;21057;-79
2021/08/04 11:09:56;;;;;;;6.15;2.85;;;;;;;36.01;27.07;101099.22;1592950;88;21972;-80
2021/08/04 11:12:36;;;;;;;5.42;2.50;;;;;;;36.04;26.11;101105.42;1593064;90;21096;-81
2021/08/04 11:15:19;;;;;;;6.12;2.70;;;;;;;36.13;25.23;101098.66;1592996;90;21004;-81
2021/08/04 11:18:12;;;;;;;3.80;2.70;;;;;;;36.01;24.92;101093.61;1592085;90;21059;-81
2021/08/04 11:21:00;;;;;;;4.22;2.22;;;;;;;36.02;25.36;101095.19;1535987;92;21104;-81
2021/08/04 11:23:48;;;;;;;5.80;3.33;;;;;;;36.33;26.19;101101.56;1534145;92;21074;-81
2021/08/04 11:26:33;;;;;;;5.87;3.20;;;;;;;36.40;25.82;101100.03;1534433;92;21253;-81
2021/08/04 11:29:00;;;;;;;5.05;3.05;;;;;;;36.13;26.75;101108.48;1534250;92;21074;-81
2021/08/04 11:31:26;;;;;;;8.28;3.00;;;;;;;36.11;25.69;101104.69;1534728;92;21124;-82